• Join FlightAware (Why Join?)
  • Login
  • US Flag 
10:43AM EDT


 

Airport Tracker/Info


-or-


 

Live Flight TrackerFlight Track Log ✈ UAL1273 ✈ 21-Jul-2013 ✈ KTPA - KIAH

Flight Track Log - Related Links

Times and Time Zones

All times are in EDT time to prevent confusion due to time zone crossing. See the UAL1273 flight status page for this flight to view local times or setup timezone preferences in your user account.

Time Position Orientation Groundspeed Altitude Reporting Facility
EDT Latitude Longitude Course Direction KTS MPH feet Rate Location/Type
09:41AM 27.9370 -82.5490 198° South 188 216 1,300  Level FlightAware
09:41AM 27.9010 -82.5620 198° South 208 239 2,700 2,040 Climbing FlightAware
09:42AM 27.8890 -82.5720 216° Southwest 219 252 3,200 1,980 Climbing FlightAware
09:42AM 27.8830 -82.5820 236° Southwest 236 272 3,500 2,280 Climbing FlightAware
09:42AM 27.9020 -82.6250 297° West 269 310 5,100 2,580 Climbing FlightAware
09:43AM 27.9210 -82.6310 344° North 268 308 5,900 3,120 Climbing FlightAware
09:43AM 27.9520 -82.6380 349° North 265 305 7,200 2,940 Climbing FlightAware
09:44AM 27.9890 -82.6490 345° North 268 308 8,600 2,820 Climbing FlightAware
09:44AM 28.0200 -82.6580 346° North 279 321 9,800 1,980 Climbing FlightAware
09:45AM 28.0740 -82.6720 347° North 318 366 10,800 1,500 Climbing FlightAware
09:45AM 28.1350 -82.6890 346° North 351 404 11,800 1,920 Climbing FlightAware
09:46AM 28.2080 -82.7090 346° North 362 417 13,600 2,460 Climbing FlightAware
09:47AM 28.2740 -82.7280 346° North 368 423 15,300 2,400 Climbing FlightAware
09:47AM 28.3410 -82.7470 346° North 367 422 16,800 2,100 Climbing FlightAware
09:48AM 28.4100 -82.7660 346° North 385 443 18,100 1,920 Climbing FlightAware
09:49AM 28.4790 -82.7850 346° North 385 443 19,400 1,980 Climbing FlightAware
09:49AM 28.5400 -82.8020 346° North 396 456 20,600 1,920 Climbing FlightAware
09:50AM 28.6100 -82.8360 337° Northwest 396 456 21,800 1,560 Climbing FlightAware
09:51AM 28.6990 -82.8970 329° Northwest 415 478 23,100 1,380 Climbing FlightAware
09:52AM 28.7660 -82.9440 328° Northwest 418 481 24,000 1,320 Climbing FlightAware
09:52AM 28.8250 -82.9850 329° Northwest 430 495 24,800 1,500 Climbing FlightAware
09:53AM 28.9010 -83.0370 329° Northwest 432 497 26,000 1,680 Climbing FlightAware
09:54AM 28.9710 -83.0860 329° Northwest 420 483 27,200 1,560 Climbing FlightAware
09:54AM 29.0380 -83.1320 329° Northwest 431 496 28,100 840 Climbing FlightAware
09:55AM 29.1140 -83.1850 329° Northwest 450 518 28,400 600 Climbing FlightAware
09:56AM 29.1890 -83.2380 328° Northwest 454 522 29,000 900 Climbing FlightAware
09:56AM 29.2340 -83.2690 329° Northwest 457 526 29,400 1,200 Climbing FlightAware
09:57AM 29.3270 -83.3340 329° Northwest 454 522 30,500 1,380 Climbing FlightAware
09:58AM 29.3990 -83.3850 328° Northwest 457 526 31,500 1,080 Climbing FlightAware
09:58AM 29.4710 -83.4350 329° Northwest 452 520 32,000 480 Climbing FlightAware
09:59AM 29.5530 -83.4930 328° Northwest 455 524 32,200 720 Climbing FlightAware
10:00AM 29.6260 -83.5440 329° Northwest 458 527 33,100 1,260 Climbing FlightAware
10:00AM 29.7000 -83.6100 322° Northwest 448 516 34,000 720 Climbing FlightAware
10:01AM 29.7220 -83.6710 293° West 453 521 34,000  Level FlightAware
10:02AM 29.7420 -83.7710 283° West 452 520 34,000 120 Level FlightAware
10:02AM 29.7620 -83.8660 284° West 453 521 34,200 720 Climbing FlightAware
10:03AM 29.7810 -83.9550 284° West 448 516 35,000 840 Climbing FlightAware
10:04AM 29.8210 -84.1470 284° West 446 513 36,000 420 Climbing FlightAware
10:05AM 29.8350 -84.2270 281° West 446 513 36,000  Level FlightAware
10:06AM 29.8570 -84.3450 282° West 446 513 36,000  Level FlightAware
10:07AM 29.8890 -84.4800 285° West 450 518 36,000  Level FlightAware
10:07AM 29.9110 -84.5890 283° West 452 520 36,000  Level FlightAware
10:08AM 29.9290 -84.6810 283° West 451 519 36,000  Level FlightAware
10:09AM 29.9500 -84.7830 283° West 450 518 36,000  Level FlightAware
10:09AM 29.9700 -84.8840 283° West 450 518 36,000  Level FlightAware
10:10AM 29.9880 -84.9700 284° West 450 518 36,000  Level FlightAware
10:13AM 30.1170 -85.2980 295° West 454 522 36,000  Level FlightAware
10:13AM 30.1720 -85.4110 299° West 455 524 36,000  Level FlightAware
10:14AM 30.2070 -85.4850 299° West 455 524 36,000  Level FlightAware
10:15AM 30.2540 -85.5850 299° West 454 522 36,000  Level FlightAware
10:16AM 30.3000 -85.6800 299° West 454 522 36,000  Level FlightAware
10:16AM 30.3440 -85.7590 303° West 453 521 36,000  Level FlightAware
10:17AM 30.3910 -85.8420 303° West 453 521 36,000  Level FlightAware
10:18AM 30.4420 -85.9340 303° West 454 522 36,000  Level FlightAware
10:18AM 30.4820 -86.0070 302° West 453 521 36,000  Level FlightAware
10:19AM 30.5270 -86.0870 303° West 453 521 36,000  Level FlightAware
10:19AM 30.5690 -86.1610 303° West 453 521 36,000  Level FlightAware
10:20AM 30.6160 -86.2460 303° West 453 521 36,000  Level FlightAware
10:21AM 30.6660 -86.3350 303° West 453 521 36,000  Level FlightAware
10:22AM 30.7080 -86.4190 300° West 453 521 36,000  Level FlightAware
10:22AM 30.7510 -86.5140 298° West 451 519 36,000  Level FlightAware
10:23AM 30.7870 -86.6010 296° West 450 518 36,000  Level FlightAware
10:24AM 30.8260 -86.6980 295° West 450 518 36,000  Level FlightAware
10:24AM 30.8530 -86.7790 291° West 447 514 36,000  Level FlightAware
10:25AM 30.8640 -86.8580 279° West 442 509 36,000  Level FlightAware
10:26AM 30.8710 -86.9470 275° West 441 507 36,000  Level FlightAware
10:26AM 30.8800 -87.0430 276° West 439 505 36,000  Level FlightAware
10:27AM 30.8910 -87.1540 277° West 439 505 36,000  Level FlightAware
10:28AM 30.8990 -87.2480 276° West 439 505 36,000  Level FlightAware
10:28AM 30.9080 -87.3530 276° West 438 504 36,000  Level FlightAware
10:29AM 30.9160 -87.4450 276° West 438 504 36,000  Level FlightAware
10:30AM 30.9250 -87.5480 276° West 439 505 36,000  Level FlightAware
10:30AM 30.9330 -87.6380 276° West 440 506 36,000  Level FlightAware
10:31AM 30.9440 -87.7640 276° West 441 507 36,000  Level FlightAware
10:32AM 30.9510 -87.8510 275° West 441 507 36,000  Level FlightAware
10:33AM 30.9600 -87.9580 276° West 441 507 36,000  Level FlightAware
10:33AM 30.9660 -88.0250 276° West 441 507 36,000  Level FlightAware
10:34AM 30.9720 -88.1040 275° West 440 506 36,000  Level FlightAware
10:34AM 30.9800 -88.2030 275° West 439 505 36,000  Level FlightAware
10:35AM 30.9880 -88.3060 275° West 438 504 36,000  Level FlightAware
10:36AM 30.9930 -88.3680 275° West 436 502 36,000  Level FlightAware
10:36AM 31.0010 -88.4590 276° West 435 501 36,000  Level FlightAware
10:37AM 31.0090 -88.5630 275° West 433 498 36,000  Level FlightAware
10:38AM 31.0170 -88.6660 275° West 433 498 36,000  Level FlightAware
10:38AM 31.0230 -88.7440 275° West 433 498 36,000  Level FlightAware
10:39AM 31.0310 -88.8520 275° West 432 497 36,000  Level FlightAware
10:41AM 31.0490 -89.0870 275° West 428 493 36,000  Level FlightAware
10:42AM 31.0580 -89.2080 275° West 426 490 36,000  Level FlightAware
10:42AM 31.0660 -89.3140 275° West 424 488 36,000  Level FlightAware
10:43AM 31.0720 -89.4010 275° West 423 487 36,000  Level FlightAware
10:44AM 31.0800 -89.5110 275° West 425 489 36,000  Level FlightAware
10:45AM 31.0860 -89.6020 274° West 424 488 36,000  Level FlightAware
10:45AM 31.0920 -89.6940 274° West 424 488 36,000  Level FlightAware
10:46AM 31.1000 -89.7980 275° West 424 488 36,000  Level FlightAware
10:47AM 31.1060 -89.8880 274° West 424 488 36,000  Level FlightAware
10:47AM 31.1120 -89.9800 274° West 424 488 36,000  Level FlightAware
10:48AM 31.1190 -90.0810 275° West 424 488 36,000  Level FlightAware
10:49AM 31.1250 -90.1730 274° West 423 487 36,000  Level FlightAware
10:50AM 31.1320 -90.2880 274° West 423 487 36,000  Level FlightAware
10:50AM 31.1360 -90.3540 274° West 423 487 36,000  Level FlightAware
10:51AM 31.1400 -90.4240 274° West 423 487 36,000  Level FlightAware
10:52AM 31.1460 -90.5170 274° West 423 487 36,000  Level FlightAware
10:52AM 31.1500 -90.5890 274° West 423 487 36,000  Level FlightAware
10:53AM 31.1550 -90.6820 274° West 423 487 36,000  Level FlightAware
10:54AM 31.1590 -90.7480 274° West 423 487 36,000  Level FlightAware
10:54AM 31.1650 -90.8450 274° West 423 487 36,000  Level FlightAware
10:55AM 31.1690 -90.9150 274° West 423 487 36,000  Level FlightAware
10:56AM 31.1750 -91.0040 275° West 423 487 36,000  Level FlightAware
10:57AM 31.1800 -91.0990 274° West 423 487 36,000  Level FlightAware
10:57AM 31.1850 -91.1710 275° West 423 487 36,000  Level FlightAware
10:58AM 31.1920 -91.2890 274° West 423 487 36,000  Level FlightAware
10:59AM 31.1683 -91.5558 274° West 443 510 36,000  Level Houston Center
11:00AM 31.1331 -91.6917 253° West 439 505 36,000  Level Houston Center
11:06AM 30.8879 -92.5668 253° West 447 514 36,000  Level FlightAware ADS-B
11:07AM 30.8570 -92.6753 252° West 448 516 36,000  Level FlightAware ADS-B
11:08AM 30.8372 -92.7448 252° West 450 518 36,000  Level FlightAware ADS-B
11:08AM 30.8176 -92.8141 252° West 454 522 36,000  Level FlightAware ADS-B
11:09AM 30.7971 -92.8854 252° West 456 525 36,000 -300 Level FlightAware ADS-B
11:09AM 30.7770 -92.9557 252° West 458 527 35,700 -840 Descending FlightAware ADS-B
11:10AM 30.7563 -93.0274 251° West 456 525 35,200 -1,020 Descending FlightAware ADS-B
11:10AM 30.7359 -93.0980 251° West 457 526 34,700 -1,260 Descending FlightAware ADS-B
11:11AM 30.7142 -93.1736 252° West 458 527 33,900 -2,100 Descending FlightAware ADS-B
11:11AM 30.6940 -93.2439 252° West 458 527 32,500 -2,700 Descending FlightAware ADS-B
11:12AM 30.6737 -93.3138 251° West 454 522 31,200 -2,400 Descending FlightAware ADS-B
11:12AM 30.6535 -93.3831 251° West 448 516 30,100 -2,280 Descending FlightAware ADS-B
11:13AM 30.6333 -93.4522 251° West 441 507 28,900 -2,280 Descending FlightAware ADS-B
11:13AM 30.6134 -93.5206 251° West 435 501 27,800 -2,220 Descending FlightAware ADS-B
11:14AM 30.5941 -93.5864 251° West 428 493 26,700 -2,220 Descending FlightAware ADS-B
11:14AM 30.5749 -93.6514 251° West 420 483 25,600 -2,100 Descending FlightAware ADS-B
11:15AM 30.5425 -93.7572 250° West 416 479 23,900 -1,980 Descending FlightAware ADS-B
11:15AM 30.5395 -93.7649 246° West 409 471 23,800 -2,040 Descending FlightAware ADS-B
11:15AM 30.5181 -93.8081 240° Southwest 404 465 23,000 -2,160 Descending FlightAware ADS-B
11:16AM 30.4703 -93.8915 236° Southwest 400 460 21,300 -2,160 Descending FlightAware ADS-B
11:17AM 30.4402 -93.9438 236° Southwest 387 445 20,300 -2,040 Descending FlightAware ADS-B
11:17AM 30.4103 -93.9957 236° Southwest 382 440 19,300 -1,920 Descending FlightAware ADS-B
11:18AM 30.3809 -94.0466 236° Southwest 375 432 18,400 -1,980 Descending FlightAware ADS-B
11:18AM 30.3518 -94.0969 236° Southwest 370 426 17,300 -2,100 Descending FlightAware ADS-B
11:19AM 30.3227 -94.1472 236° Southwest 366 421 16,300 -1,980 Descending FlightAware ADS-B
11:19AM 30.2944 -94.1960 236° Southwest 361 415 15,300 -2,100 Descending FlightAware ADS-B
11:20AM 30.2665 -94.2442 236° Southwest 355 409 14,200 -1,980 Descending FlightAware ADS-B
11:20AM 30.2413 -94.2875 236° Southwest 349 402 13,400 -1,860 Descending FlightAware ADS-B
11:20AM 30.2348 -94.3010 241° Southwest 347 399 13,100 -2,100 Descending FlightAware ADS-B
11:21AM 30.2279 -94.3206 248° West 345 397 12,700 -2,040 Descending FlightAware ADS-B
11:21AM 30.2238 -94.3366 253° West 345 397 12,400 -1,260 Descending FlightAware ADS-B
11:21AM 30.2126 -94.3901 256° West 331 381 11,900 -540 Descending FlightAware ADS-B
11:22AM 30.2016 -94.4418 256° West 328 377 11,900 -420 Level FlightAware ADS-B
11:22AM 30.1896 -94.4974 256° West 324 373 11,500 -900 Descending FlightAware ADS-B
11:23AM 30.1786 -94.5486 256° West 324 373 11,000 -1,020 Descending FlightAware ADS-B
11:23AM 30.1680 -94.5994 256° West 323 372 10,500 -720 Descending FlightAware ADS-B
11:24AM 30.1579 -94.6486 257° West 321 369 10,300 -480 Descending FlightAware ADS-B
11:24AM 30.1498 -94.6877 257° West 320 368 10,100 -660 Descending FlightAware ADS-B
11:24AM 30.1443 -94.7141 256° West 318 366 9,900 -420 Descending FlightAware ADS-B
11:25AM 30.1389 -94.7404 257° West 318 366 9,900  Level FlightAware ADS-B
11:25AM 30.1337 -94.7653 256° West 317 365 9,900 180 Level FlightAware ADS-B
11:25AM 30.1284 -94.7903 256° West 318 366 10,000 180 Climbing FlightAware ADS-B
11:25AM 30.1232 -94.8151 256° West 319 367 10,000  Level FlightAware ADS-B
11:26AM 30.1179 -94.8404 256° West 319 367 10,000 -240 Level FlightAware ADS-B
11:26AM 30.1126 -94.8655 256° West 312 359 9,900 -240 Descending FlightAware ADS-B
11:26AM 30.1093 -94.8819 257° West 300 345 9,900  Level FlightAware ADS-B
11:26AM 30.1072 -94.8959 260° West 293 337 9,900 -420 Level FlightAware ADS-B
11:26AM 30.1061 -94.9069 263° West 291 335 9,800 -600 Descending FlightAware ADS-B
11:26AM 30.1057 -94.9126 265° West 290 334 9,800 -1,140 Level FlightAware ADS-B
11:27AM 30.1053 -94.9251 268° West 289 333 9,600 -1,260 Descending FlightAware ADS-B
11:27AM 30.1054 -94.9498 270° West 287 330 9,300 -960 Descending FlightAware ADS-B
11:27AM 30.1055 -94.9734 270° West 284 327 9,100 -1,020 Descending FlightAware ADS-B
11:27AM 30.1057 -94.9965 271° West 282 325 8,800 -1,200 Descending FlightAware ADS-B
11:28AM 30.1058 -95.0201 270° West 281 323 8,500 -1,140 Descending FlightAware ADS-B
11:28AM 30.1058 -95.0461 270° West 279 321 8,200 -1,080 Descending FlightAware ADS-B
11:28AM 30.1059 -95.0635 270° West 278 320 8,000 -900 Descending FlightAware ADS-B
11:28AM 30.1060 -95.0859 270° West 276 318 7,800 -1,020 Descending FlightAware ADS-B
11:29AM 30.1061 -95.1085 270° West 274 315 7,500 -1,020 Descending FlightAware ADS-B
11:29AM 30.1062 -95.1307 270° West 272 313 7,300 -1,080 Descending FlightAware ADS-B
11:29AM 30.1063 -95.1503 270° West 272 313 7,000 -1,080 Descending FlightAware ADS-B
11:29AM 30.1064 -95.1725 270° West 272 313 6,800 -1,020 Descending FlightAware ADS-B
11:30AM 30.1064 -95.1944 270° West 272 313 6,500 -1,020 Descending FlightAware ADS-B
11:30AM 30.1064 -95.2165 270° West 272 313 6,300 -1,020 Descending FlightAware ADS-B
11:30AM 30.1065 -95.2393 270° West 271 312 6,000 -720 Descending FlightAware ADS-B
11:30AM 30.1065 -95.2639 270° West 259 298 5,900 -240 Descending FlightAware ADS-B
11:31AM 30.1067 -95.2844 271° West 242 278 5,900  Level FlightAware ADS-B
11:31AM 30.1067 -95.3001 270° West 229 264 5,900 -420 Level FlightAware ADS-B
11:31AM 30.1067 -95.3243 270° West 221 254 5,700 -1,020 Descending FlightAware ADS-B
11:32AM 30.1068 -95.3439 270° West 225 259 5,300 -1,500 Descending FlightAware ADS-B
11:32AM 30.1068 -95.3626 270° West 224 258 4,900 -1,440 Descending FlightAware ADS-B
11:32AM 30.1068 -95.3809 270° West 222 255 4,600 -1,200 Descending FlightAware ADS-B
11:32AM 30.1068 -95.3987 270° West 219 252 4,300 -1,140 Descending FlightAware ADS-B
11:33AM 30.1068 -95.4172 270° West 216 249 4,000 -1,200 Descending FlightAware ADS-B
11:33AM 30.1066 -95.4231 268° West 216 249 3,900 -1,500 Descending FlightAware ADS-B
11:33AM 30.1061 -95.4272 262° West 215 247 3,800 -1,740 Descending FlightAware ADS-B
11:33AM 30.1049 -95.4316 253° West 214 246 3,700 -1,380 Descending FlightAware ADS-B
11:33AM 30.0975 -95.4437 235° Southwest 213 245 3,400 -1,440 Descending FlightAware ADS-B
11:33AM 30.0888 -95.4528 222° Southwest 210 242 3,100 -1,260 Descending FlightAware ADS-B
11:34AM 30.0733 -95.4692 222° Southwest 209 241 2,700 -1,140 Descending FlightAware ADS-B
11:34AM 30.0691 -95.4736 222° Southwest 208 239 2,600 -1,380 Descending FlightAware ADS-B
11:34AM 30.0659 -95.4763 216° Southwest 210 242 2,500 -900 Descending FlightAware ADS-B
11:34AM 30.0572 -95.4804 202° Southwest 208 239 2,400 -900 Descending FlightAware ADS-B
11:34AM 30.0542 -95.4809 188° South 206 237 2,300 -900 Descending FlightAware ADS-B
11:34AM 30.0510 -95.4811 183° South 205 236 2,300 -720 Level FlightAware ADS-B
11:34AM 30.0372 -95.4813 181° South 195 224 2,100 -780 Descending FlightAware ADS-B
11:34AM 30.0296 -95.4815 181° South 192 221 2,000 -600 Descending FlightAware ADS-B
11:35AM 30.0188 -95.4796 171° South 190 219 1,900 -420 Descending FlightAware ADS-B
11:35AM 30.0157 -95.4777 152° Southeast 188 216 1,900  Level FlightAware ADS-B
11:35AM 30.0131 -95.4753 141° Southeast 187 215 1,900  Level FlightAware ADS-B
11:35AM 30.0090 -95.4687 126° Southeast 186 214 1,900 -540 Level FlightAware ADS-B
11:35AM 30.0080 -95.4655 110° East 187 215 1,800 -1,440 Descending FlightAware ADS-B
11:35AM 30.0070 -95.4567 97° East 183 211 1,600 -1,080 Descending FlightAware ADS-B
11:35AM 30.0069 -95.4489 91° East 178 205 1,500 -960 Descending FlightAware ADS-B
11:36AM 30.0071 -95.4330 89° East 176 203 1,200 -780 Descending FlightAware ADS-B
11:36AM 30.0072 -95.4203 89° East 164 189 1,100 -840 Descending FlightAware ADS-B
11:36AM 30.0073 -95.4134 89° East 162 186 900 -900 Descending FlightAware ADS-B
11:36AM 30.0072 -95.4025 91° East 160 184 800 -780 Descending FlightAware ADS-B
11:36AM 30.0071 -95.3930 91° East 160 184 600 -840 Descending FlightAware ADS-B
11:36AM 30.0070 -95.3826 91° East 157 181 500 -780 Descending FlightAware ADS-B
11:37AM 30.0071 -95.3728 89° East 157 181 300 -1,080 Descending FlightAware ADS-B
11:37AM 30.0072 -95.3629 89° East 157 181 100 -1,140 Descending FlightAware ADS-B
11:37AM 30.0072 -95.3483 90° East 157 181 -360 Descending FlightAware ADS-B